Time;durP1;ratioP1;P1;durP2;ratioP2;P2;SDS_P1;SDS_P2;PMS_P1;PMS_P2;Temp;Humidity;BMP_temperature;BMP_pressure;BME280_temperature;BME280_humidity;BME280_pressure;Samples;Min_cycle;Max_cycle;Signal;HPM_P1;HPM_P2
2022/07/31 00:01:14;;;;;;;7.80;3.20;;;;;;;23.91;61.41;100505.47;2102742;28;20044;-76
2022/07/31 00:02:36;;;;;;;4.43;2.67;;;;;;;23.95;61.26;100508.91;2110935;28;20067;-75
2022/07/31 00:03:58;;;;;;;7.70;2.92;;;;;;;23.88;61.40;100502.03;2105488;28;20093;-75
2022/07/31 00:05:20;;;;;;;7.20;2.38;;;;;;;23.79;61.36;100504.19;2110492;28;20590;-76
2022/07/31 00:06:43;;;;;;;7.60;2.88;;;;;;;23.62;61.88;100501.34;2105302;28;20055;-76
2022/07/31 00:08:07;;;;;;;6.35;2.85;;;;;;;23.37;62.31;100501.41;2104478;28;20048;-75
2022/07/31 00:09:29;;;;;;;5.60;2.63;;;;;;;23.22;62.79;100502.06;2104778;28;20047;-75
2022/07/31 00:10:52;;;;;;;10.27;2.80;;;;;;;23.22;62.88;100493.13;2105429;28;20082;-75
2022/07/31 00:12:14;;;;;;;7.10;2.83;;;;;;;23.29;62.68;100500.88;2102196;28;20067;-75
2022/07/31 00:13:36;;;;;;;5.35;2.70;;;;;;;23.34;62.50;100495.28;2102120;28;20058;-76
2022/07/31 00:14:59;;;;;;;7.57;2.95;;;;;;;23.28;62.35;100495.56;2101803;28;20097;-75
2022/07/31 00:16:20;;;;;;;8.85;3.10;;;;;;;23.26;62.43;100498.31;2110624;28;20051;-75
2022/07/31 00:17:44;;;;;;;9.98;2.13;;;;;;;23.32;62.35;100495.34;2096739;28;20062;-76
2022/07/31 00:19:05;;;;;;;4.78;2.63;;;;;;;23.28;62.18;100491.03;2102752;28;20265;-76
2022/07/31 00:20:27;;;;;;;8.55;3.25;;;;;;;23.13;62.35;100496.16;2111815;28;20080;-75
2022/07/31 00:21:50;;;;;;;8.32;2.90;;;;;;;22.97;62.83;100506.69;2105035;28;20086;-75
2022/07/31 00:23:13;;;;;;;10.30;3.38;;;;;;;22.84;63.31;100497.34;2102117;28;20096;-75
2022/07/31 00:24:35;;;;;;;8.73;2.88;;;;;;;22.77;63.48;100499.41;2105739;28;20162;-75
2022/07/31 00:25:58;;;;;;;8.30;3.10;;;;;;;22.73;63.43;100500.44;2105113;28;20075;-75
2022/07/31 00:27:20;;;;;;;4.88;2.83;;;;;;;22.72;63.61;100501.31;2102542;28;20488;-75
2022/07/31 00:28:43;;;;;;;5.13;2.58;;;;;;;22.77;63.55;100507.47;2102080;28;20475;-76
2022/07/31 00:30:06;;;;;;;8.85;2.78;;;;;;;22.75;63.42;100500.38;2102289;28;20081;-75
2022/07/31 00:31:29;;;;;;;7.43;3.17;;;;;;;22.61;63.55;100498.19;2104829;28;20549;-76
2022/07/31 00:32:52;;;;;;;6.93;2.80;;;;;;;22.53;63.91;100508.34;2093703;28;20497;-75
2022/07/31 00:34:15;;;;;;;7.00;3.33;;;;;;;22.45;63.88;100503.25;2099832;28;20075;-75
2022/07/31 00:35:37;;;;;;;9.52;3.22;;;;;;;22.36;64.05;100500.91;2093646;28;20135;-76
2022/07/31 00:36:58;;;;;;;6.32;3.95;;;;;;;22.36;64.18;100497.34;2093754;28;20105;-75
2022/07/31 00:38:23;;;;;;;5.35;2.80;;;;;;;22.39;64.14;100510.66;2100787;28;20480;-76
2022/07/31 00:39:46;;;;;;;6.97;3.22;;;;;;;22.42;63.94;100507.88;2094465;28;20040;-76
2022/07/31 00:41:08;;;;;;;6.55;3.10;;;;;;;22.43;63.99;100506.94;2099711;28;20149;-75
2022/07/31 00:42:31;;;;;;;8.18;3.30;;;;;;;22.47;63.69;100498.69;2102323;28;20134;-75
2022/07/31 00:43:53;;;;;;;5.63;2.92;;;;;;;22.50;63.66;100505.78;2101277;28;20119;-75
2022/07/31 00:45:14;;;;;;;6.75;3.00;;;;;;;22.52;63.55;100509.28;2093972;28;20052;-76
2022/07/31 00:46:39;;;;;;;6.03;3.10;;;;;;;22.55;63.37;100509.19;2099955;28;20508;-75
2022/07/31 00:48:02;;;;;;;7.35;2.97;;;;;;;22.48;63.45;100508.53;2096811;28;20466;-74
2022/07/31 00:49:25;;;;;;;5.57;2.80;;;;;;;22.37;63.76;100509.88;2096582;28;20059;-75
2022/07/31 00:50:47;;;;;;;6.47;3.80;;;;;;;22.38;64.07;100498.19;2096550;28;20053;-75
2022/07/31 00:52:10;;;;;;;8.15;3.47;;;;;;;22.44;63.96;100496.13;2105093;28;20504;-75
2022/07/31 00:53:34;;;;;;;5.03;2.90;;;;;;;22.47;63.58;100487.94;2104970;28;20058;-75
2022/07/31 00:54:56;;;;;;;6.07;2.85;;;;;;;22.38;63.69;100491.00;2104880;28;20068;-74
2022/07/31 00:56:19;;;;;;;5.68;2.95;;;;;;;22.29;63.94;100495.81;2095174;28;20049;-75
2022/07/31 00:57:42;;;;;;;5.68;2.85;;;;;;;22.33;64.11;100487.56;2093765;28;20044;-75
2022/07/31 00:59:05;;;;;;;6.57;2.88;;;;;;;22.46;63.84;100488.88;2099308;28;20058;-75
2022/07/31 01:00:27;;;;;;;5.35;2.65;;;;;;;22.45;63.49;100491.63;2093800;28;20075;-75
2022/07/31 01:01:49;;;;;;;5.68;3.05;;;;;;;22.21;63.77;100483.53;2099449;28;20494;-75
2022/07/31 01:03:11;;;;;;;6.35;2.80;;;;;;;22.10;64.10;100492.91;2102199;28;20139;-74
2022/07/31 01:04:33;;;;;;;4.88;2.25;;;;;;;22.04;64.28;100480.59;2102069;28;20085;-75
2022/07/31 01:05:55;;;;;;;6.38;3.25;;;;;;;22.01;64.27;100488.75;2093959;28;20098;-75
2022/07/31 01:07:17;;;;;;;7.00;3.17;;;;;;;21.97;64.46;100489.78;2099284;28;20048;-75
2022/07/31 01:08:40;;;;;;;8.68;3.22;;;;;;;22.03;64.43;100491.38;2102005;28;20374;-75
2022/07/31 01:10:08;;;;;;;7.85;3.20;;;;;;;22.10;64.31;100480.34;2110517;28;20044;-75
2022/07/31 01:11:42;;;;;;;7.88;2.95;;;;;;;22.07;64.12;100482.25;2115637;28;20051;-75
2022/07/31 01:13:07;;;;;;;7.45;3.65;;;;;;;21.96;64.27;100477.28;2104938;28;20561;-75
2022/07/31 01:14:34;;;;;;;7.32;3.05;;;;;;;21.92;64.27;100482.81;2094150;28;20036;-75
2022/07/31 01:15:58;;;;;;;7.15;2.70;;;;;;;21.85;64.38;100474.97;2091951;28;20052;-75
2022/07/31 01:17:23;;;;;;;6.70;2.78;;;;;;;21.87;64.34;100478.44;2100199;28;20064;-75
2022/07/31 01:18:48;;;;;;;10.85;3.20;;;;;;;22.01;64.08;100486.06;2093677;28;20526;-75
2022/07/31 01:20:11;;;;;;;6.05;3.40;;;;;;;22.10;63.88;100476.78;2098464;28;20457;-75
2022/07/31 01:21:39;;;;;;;7.88;3.28;;;;;;;22.14;63.65;100471.25;2093993;28;20047;-75
2022/07/31 01:23:21;;;;;;;8.50;2.92;;;;;;;22.11;63.44;100479.44;2101117;28;20080;-74
2022/07/31 01:25:33;;;;;;;5.20;2.70;;;;;;;22.01;63.53;100475.31;2095251;28;20182;-75
2022/07/31 01:27:21;;;;;;;7.72;3.25;;;;;;;22.03;63.66;100488.69;2081048;28;20405;-75
2022/07/31 01:29:02;;;;;;;5.65;3.08;;;;;;;22.11;63.53;100487.50;2102662;28;20048;-74
2022/07/31 01:30:32;;;;;;;5.15;3.03;;;;;;;22.13;63.33;100480.22;2096303;28;20032;-74
2022/07/31 01:32:01;;;;;;;6.30;3.22;;;;;;;22.14;63.16;100490.06;2094795;28;20082;-75
2022/07/31 01:33:30;;;;;;;5.35;2.90;;;;;;;22.10;63.19;100484.84;2102190;28;20419;-75
2022/07/31 01:34:57;;;;;;;6.10;2.78;;;;;;;22.04;63.40;100483.28;2102004;28;20512;-75
2022/07/31 01:36:23;;;;;;;7.68;3.15;;;;;;;22.05;63.46;100479.66;2094264;28;20044;-75
2022/07/31 01:37:50;;;;;;;8.25;3.47;;;;;;;22.14;63.38;100486.50;2100438;28;20052;-75
2022/07/31 01:39:12;;;;;;;8.80;3.53;;;;;;;22.15;63.21;100482.88;2102532;28;20097;-75
2022/07/31 01:40:39;;;;;;;8.30;3.40;;;;;;;22.16;63.16;100487.31;2093823;28;20147;-74
2022/07/31 01:42:05;;;;;;;7.78;3.00;;;;;;;22.09;63.13;100486.66;2103915;28;20043;-75
2022/07/31 01:43:32;;;;;;;6.50;3.05;;;;;;;22.09;63.35;100486.66;2096062;28;20488;-75
2022/07/31 01:45:00;;;;;;;6.07;2.78;;;;;;;22.16;63.39;100484.63;2100886;28;20062;-75
2022/07/31 01:46:24;;;;;;;7.75;3.10;;;;;;;22.23;63.39;100483.47;2094267;28;20150;-76
2022/07/31 01:47:49;;;;;;;9.13;3.45;;;;;;;22.29;63.08;100477.88;2093551;28;20457;-74
2022/07/31 01:49:12;;;;;;;5.07;2.72;;;;;;;22.36;62.96;100486.59;2091880;28;20060;-75
2022/07/31 01:50:37;;;;;;;7.93;3.13;;;;;;;22.38;62.75;100477.53;2096379;28;20049;-75
2022/07/31 01:52:01;;;;;;;7.28;3.05;;;;;;;22.37;62.73;100483.84;2101830;28;20044;-75
2022/07/31 01:53:23;;;;;;;9.05;2.88;;;;;;;22.36;62.60;100482.09;2096228;28;20032;-75
2022/07/31 01:54:49;;;;;;;6.70;3.38;;;;;;;22.29;62.61;100479.69;2092803;28;20060;-76
2022/07/31 01:56:15;;;;;;;6.65;3.45;;;;;;;22.25;63.00;100482.47;2092405;28;20037;-75
2022/07/31 01:57:40;;;;;;;7.40;3.25;;;;;;;22.26;63.14;100477.97;2102645;28;20400;-74
2022/07/31 01:59:03;;;;;;;7.63;3.42;;;;;;;22.30;63.05;100474.25;2103079;28;20040;-75
2022/07/31 02:00:36;;;;;;;8.18;2.80;;;;;;;22.32;63.14;100471.50;2094661;28;20036;-75
2022/07/31 02:01:59;;;;;;;6.65;2.80;;;;;;;22.16;63.17;100468.50;2100112;28;20044;-75
2022/07/31 02:03:24;;;;;;;9.18;2.67;;;;;;;21.98;63.31;100466.47;2085925;28;20087;-75
2022/07/31 02:04:48;;;;;;;7.07;2.60;;;;;;;21.94;63.39;100472.84;2095975;28;20051;-75
2022/07/31 02:06:10;;;;;;;6.63;3.08;;;;;;;21.82;63.26;100468.78;2093923;28;20051;-75
2022/07/31 02:07:35;;;;;;;5.38;2.80;;;;;;;21.77;63.36;100465.41;2093947;28;20044;-74
2022/07/31 02:08:59;;;;;;;6.38;3.15;;;;;;;21.79;63.29;100464.38;2085414;28;20067;-74
2022/07/31 02:10:23;;;;;;;5.20;2.72;;;;;;;21.81;63.04;100467.03;2105400;28;20058;-75
2022/07/31 02:11:46;;;;;;;5.28;2.80;;;;;;;21.84;62.85;100465.13;2094776;28;20045;-75
2022/07/31 02:13:09;;;;;;;4.80;2.90;;;;;;;21.88;62.71;100468.56;2091115;28;20049;-74
2022/07/31 02:14:32;;;;;;;7.82;3.55;;;;;;;21.87;62.68;100467.69;2099688;28;20059;-75
2022/07/31 02:15:56;;;;;;;6.25;3.72;;;;;;;21.93;62.46;100466.59;2101995;28;20575;-75
2022/07/31 02:17:20;;;;;;;6.07;2.92;;;;;;;21.97;62.23;100462.91;2093602;28;20420;-75
2022/07/31 02:19:14;;;;;;;5.32;2.65;;;;;;;21.88;62.16;100458.69;2104553;28;20059;-75
2022/07/31 02:20:37;;;;;;;5.72;2.67;;;;;;;21.81;62.08;100462.53;2107172;28;20404;-75
2022/07/31 02:22:00;;;;;;;6.80;2.65;;;;;;;21.76;62.08;100461.84;2104141;28;20042;-75
2022/07/31 02:23:21;;;;;;;5.95;2.50;;;;;;;21.78;62.05;100451.91;2096082;28;20056;-75
2022/07/31 02:24:44;;;;;;;6.47;2.63;;;;;;;21.82;61.87;100460.72;2107672;28;20044;-75
2022/07/31 02:26:06;;;;;;;6.70;2.83;;;;;;;21.85;61.60;100463.31;2095975;28;20071;-75
2022/07/31 02:27:31;;;;;;;4.88;2.60;;;;;;;21.92;61.47;100472.94;2091266;28;20052;-75
2022/07/31 02:28:53;;;;;;;5.57;2.67;;;;;;;21.95;61.63;100469.22;2107547;28;20157;-75
2022/07/31 02:30:17;;;;;;;6.75;2.83;;;;;;;21.97;61.88;100462.91;2095007;28;20121;-75
2022/07/31 02:31:44;;;;;;;5.00;2.70;;;;;;;22.02;61.93;100466.31;2091157;28;20520;-76
2022/07/31 02:33:10;;;;;;;5.97;2.58;;;;;;;22.03;62.00;100467.19;2100208;28;20480;-75
2022/07/31 02:34:36;;;;;;;7.95;3.13;;;;;;;22.02;62.10;100458.25;2095093;28;20053;-75
2022/07/31 02:35:58;;;;;;;7.88;2.95;;;;;;;22.02;61.99;100463.63;2101591;28;20162;-75
2022/07/31 02:37:23;;;;;;;7.05;3.33;;;;;;;22.04;61.87;100463.56;2101783;28;20052;-76
2022/07/31 02:38:44;;;;;;;5.47;3.10;;;;;;;22.03;61.74;100462.69;2102586;28;20044;-75
2022/07/31 02:40:09;;;;;;;6.45;2.80;;;;;;;22.00;61.69;100465.47;2097359;28;20047;-75
2022/07/31 02:41:32;;;;;;;8.40;2.70;;;;;;;21.94;61.83;100471.03;2095099;28;20055;-75
2022/07/31 02:42:54;;;;;;;6.18;3.00;;;;;;;21.78;61.76;100453.72;2100248;28;20498;-75
2022/07/31 02:44:18;;;;;;;8.25;2.83;;;;;;;21.67;62.04;100462.13;2097671;28;20543;-75
2022/07/31 02:45:41;;;;;;;6.78;3.53;;;;;;;21.58;62.14;100454.41;2099019;28;20056;-75
2022/07/31 02:47:07;;;;;;;6.60;2.83;;;;;;;21.59;62.14;100461.56;2095316;28;20044;-74
2022/07/31 02:48:31;;;;;;;5.25;2.60;;;;;;;21.66;61.93;100459.53;2095300;28;20052;-75
2022/07/31 02:49:57;;;;;;;5.28;3.20;;;;;;;21.69;61.94;100462.09;2095534;28;20536;-75
2022/07/31 02:51:20;;;;;;;6.80;3.00;;;;;;;21.72;61.79;100465.56;2093967;28;20047;-75
2022/07/31 02:52:44;;;;;;;9.43;3.10;;;;;;;21.78;61.77;100456.41;2103409;28;20067;-74
2022/07/31 02:54:08;;;;;;;7.60;3.38;;;;;;;21.79;61.63;100459.03;2095195;28;20048;-75
2022/07/31 02:55:30;;;;;;;4.35;2.65;;;;;;;21.77;61.64;100463.59;2099660;28;20559;-75
2022/07/31 02:56:53;;;;;;;5.22;2.78;;;;;;;21.73;61.74;100467.28;2102689;28;20044;-75
2022/07/31 02:58:16;;;;;;;6.82;3.13;;;;;;;21.71;61.57;100457.56;2093562;28;20492;-75
2022/07/31 02:59:43;;;;;;;5.18;2.70;;;;;;;21.71;61.60;100449.50;2109377;28;20051;-75
2022/07/31 03:01:07;;;;;;;8.52;2.72;;;;;;;21.73;61.57;100453.88;2096355;28;20526;-75
2022/07/31 03:02:32;;;;;;;8.30;3.00;;;;;;;21.73;61.57;100456.53;2095042;28;20053;-75
2022/07/31 03:03:55;;;;;;;7.78;3.10;;;;;;;21.71;61.32;100454.88;2092680;28;20052;-75
2022/07/31 03:05:17;;;;;;;4.90;2.40;;;;;;;21.66;61.22;100444.25;2086502;28;20041;-75
2022/07/31 03:06:39;;;;;;;6.53;2.80;;;;;;;21.53;61.05;100453.66;2096556;28;20531;-75
2022/07/31 03:08:02;;;;;;;4.60;2.65;;;;;;;21.43;61.20;100447.75;2094215;28;20550;-74
2022/07/31 03:09:24;;;;;;;6.28;2.90;;;;;;;21.34;60.99;100449.84;2092126;28;20041;-75
2022/07/31 03:10:59;;;;;;;5.22;2.85;;;;;;;21.21;61.22;100453.88;2102422;28;20097;-75
2022/07/31 03:12:24;;;;;;;6.68;3.45;;;;;;;21.14;61.15;100447.78;2095020;28;20070;-75
2022/07/31 03:13:47;;;;;;;5.57;2.50;;;;;;;21.10;61.30;100440.78;2089106;28;20107;-75
2022/07/31 03:15:12;;;;;;;6.63;3.03;;;;;;;21.21;61.12;100451.19;2092758;28;20085;-75
2022/07/31 03:16:36;;;;;;;5.28;2.58;;;;;;;21.30;60.73;100453.59;2100419;28;20052;-75
2022/07/31 03:18:00;;;;;;;5.95;2.70;;;;;;;21.37;60.58;100456.03;2094354;28;20163;-75
2022/07/31 03:19:35;;;;;;;6.57;3.08;;;;;;;21.41;60.57;100460.34;2096518;28;20496;-75
2022/07/31 03:20:57;;;;;;;5.85;3.20;;;;;;;21.44;60.52;100449.50;2107965;28;20039;-77
2022/07/31 03:22:19;;;;;;;6.70;2.80;;;;;;;21.47;60.59;100461.94;2097249;28;20059;-75
2022/07/31 03:23:46;;;;;;;6.60;3.03;;;;;;;21.46;60.59;100455.69;2085271;28;20064;-75
2022/07/31 03:25:14;;;;;;;6.22;3.00;;;;;;;21.46;60.65;100461.06;2102614;28;20077;-76
2022/07/31 03:26:37;;;;;;;8.00;2.53;;;;;;;21.44;60.78;100460.25;2102587;28;20048;-76
2022/07/31 03:27:59;;;;;;;6.45;2.53;;;;;;;21.47;60.62;100459.25;2097399;28;20159;-75
2022/07/31 03:29:23;;;;;;;4.63;2.50;;;;;;;21.48;60.56;100459.22;2094559;28;20067;-75
2022/07/31 03:30:44;;;;;;;4.88;2.47;;;;;;;21.48;60.56;100458.34;2100119;28;20052;-75
2022/07/31 03:32:07;;;;;;;4.85;2.50;;;;;;;21.45;60.26;100448.59;2098140;28;20063;-76
2022/07/31 03:33:32;;;;;;;6.95;3.38;;;;;;;21.41;60.13;100456.78;2089053;28;20057;-75
2022/07/31 03:34:54;;;;;;;5.70;2.72;;;;;;;21.35;60.19;100452.50;2094827;28;20103;-75
2022/07/31 03:36:17;;;;;;;5.32;2.30;;;;;;;21.40;60.29;100458.59;2101941;28;20131;-75
2022/07/31 03:37:39;;;;;;;5.55;2.30;;;;;;;21.47;60.12;100457.44;2094615;28;20049;-75
2022/07/31 03:39:04;;;;;;;8.00;2.67;;;;;;;21.54;59.80;100457.25;2100200;28;20090;-75
2022/07/31 03:40:35;;;;;;;8.90;2.75;;;;;;;21.58;59.71;100458.91;2097107;28;20139;-75
2022/07/31 03:41:59;;;;;;;3.95;2.38;;;;;;;21.63;59.57;100454.25;2097213;28;20156;-76
2022/07/31 03:43:22;;;;;;;4.97;2.33;;;;;;;21.66;59.43;100452.31;2094621;28;20041;-76
2022/07/31 03:44:46;;;;;;;6.10;3.03;;;;;;;21.74;59.24;100455.63;2094655;28;20044;-75
2022/07/31 03:46:09;;;;;;;6.85;2.65;;;;;;;21.83;59.13;100444.56;2094196;28;20413;-75
2022/07/31 03:47:31;;;;;;;8.30;2.92;;;;;;;21.96;58.95;100455.78;2102496;28;20064;-75
2022/07/31 03:48:55;;;;;;;7.78;2.80;;;;;;;22.05;58.91;100455.47;2097204;28;20048;-76
2022/07/31 03:50:19;;;;;;;9.52;2.78;;;;;;;22.13;59.13;100457.84;2092712;28;20553;-75
2022/07/31 03:51:42;;;;;;;9.65;4.32;;;;;;;22.22;59.07;100452.13;2091651;28;20416;-75
2022/07/31 03:53:05;;;;;;;4.82;2.35;;;;;;;22.35;58.98;100448.03;2091086;28;20068;-75
2022/07/31 03:54:28;;;;;;;6.47;2.63;;;;;;;22.49;58.76;100444.84;2092517;28;20044;-75
2022/07/31 03:56:05;;;;;;;9.40;2.65;;;;;;;22.62;58.56;100447.00;2102986;28;20055;-75
2022/07/31 03:57:29;;;;;;;5.03;2.38;;;;;;;22.73;58.14;100453.78;2094756;28;20052;-75
2022/07/31 03:58:52;;;;;;;5.10;2.60;;;;;;;22.82;58.00;100443.56;2098838;28;20098;-75
2022/07/31 04:00:19;;;;;;;4.13;1.98;;;;;;;22.99;57.54;100456.31;2095816;28;20044;-75
2022/07/31 04:01:41;;;;;;;4.35;2.13;;;;;;;23.13;57.19;100447.69;2101192;28;20051;-75
2022/07/31 04:03:12;;;;;;;5.97;2.63;;;;;;;23.30;56.59;100455.97;2098634;28;20045;-75
2022/07/31 04:04:47;;;;;;;4.30;2.15;;;;;;;23.43;56.23;100441.88;2096423;28;20103;-75
2022/07/31 04:06:10;;;;;;;6.35;1.95;;;;;;;23.59;56.02;100444.84;2094381;28;20080;-75
2022/07/31 04:07:32;;;;;;;4.57;1.88;;;;;;;23.74;55.88;100446.88;2102027;28;20121;-75
2022/07/31 04:08:55;;;;;;;6.45;2.33;;;;;;;23.84;55.60;100442.84;2102717;28;20388;-75
2022/07/31 04:10:17;;;;;;;6.05;2.25;;;;;;;23.95;55.83;100439.69;2102724;28;20044;-75
2022/07/31 04:11:39;;;;;;;3.78;1.73;;;;;;;24.07;55.68;100443.63;2096017;28;20036;-75
2022/07/31 04:13:01;;;;;;;3.92;2.00;;;;;;;24.20;55.38;100450.25;2091386;28;20480;-74
2022/07/31 04:14:24;;;;;;;6.80;1.80;;;;;;;24.33;55.42;100450.56;2098552;28;20655;-75
2022/07/31 04:15:47;;;;;;;5.07;1.83;;;;;;;24.44;55.32;100454.53;2094610;28;20661;-75
2022/07/31 04:17:08;;;;;;;3.45;1.80;;;;;;;24.57;54.95;100446.72;2094495;28;20048;-75
2022/07/31 04:18:31;;;;;;;6.68;1.70;;;;;;;24.66;54.24;100440.03;2092479;28;20048;-75
2022/07/31 04:19:55;;;;;;;3.92;2.20;;;;;;;24.77;54.43;100449.34;2094218;28;20036;-75
2022/07/31 04:21:18;;;;;;;4.43;1.83;;;;;;;24.91;54.48;100446.91;2094195;28;20143;-75
2022/07/31 04:22:41;;;;;;;7.05;2.10;;;;;;;25.09;54.21;100441.53;2096680;28;20067;-75
2022/07/31 04:24:10;;;;;;;5.57;2.00;;;;;;;25.27;54.35;100438.78;2110615;28;20087;-75
2022/07/31 04:25:58;;;;;;;5.18;1.85;;;;;;;25.50;53.61;100442.19;2104459;28;20054;-75
2022/07/31 04:27:28;;;;;;;4.93;2.00;;;;;;;25.67;53.44;100439.50;2095350;28;20574;-75
2022/07/31 04:28:51;;;;;;;4.57;2.03;;;;;;;25.82;52.77;100436.00;2107055;28;20047;-75
2022/07/31 04:30:14;;;;;;;3.88;1.92;;;;;;;25.97;52.23;100440.63;2096936;28;20135;-75
2022/07/31 04:31:37;;;;;;;4.88;2.00;;;;;;;26.15;52.25;100445.03;2093626;28;20417;-75
2022/07/31 04:33:03;;;;;;;2.85;1.83;;;;;;;26.33;51.66;100436.91;2084171;28;20053;-75
2022/07/31 04:34:25;;;;;;;5.15;2.00;;;;;;;26.50;51.25;100434.16;2099398;28;20047;-75
2022/07/31 04:35:49;;;;;;;4.65;1.80;;;;;;;26.72;50.99;100440.09;2100977;28;20411;-75
2022/07/31 04:37:12;;;;;;;3.63;1.85;;;;;;;26.90;50.91;100443.66;2093552;28;20076;-75
2022/07/31 04:38:34;;;;;;;6.10;2.08;;;;;;;27.03;50.30;100441.13;2093957;28;20071;-75
2022/07/31 04:39:57;;;;;;;5.78;1.63;;;;;;;27.08;50.16;100442.59;2102469;28;20044;-75
2022/07/31 04:41:20;;;;;;;4.10;1.80;;;;;;;27.13;50.04;100442.31;2093974;28;20048;-75
2022/07/31 04:42:42;;;;;;;5.43;1.80;;;;;;;27.26;49.88;100446.94;2100878;28;20175;-75
2022/07/31 04:44:04;;;;;;;5.80;1.65;;;;;;;27.41;49.30;100447.88;2088519;28;20505;-75
2022/07/31 04:45:41;;;;;;;6.45;2.13;;;;;;;27.57;48.97;100442.47;2103495;28;20555;-75
2022/07/31 04:47:06;;;;;;;2.65;1.70;;;;;;;27.76;48.82;100437.69;2105966;28;20562;-75
2022/07/31 04:48:30;;;;;;;2.25;1.50;;;;;;;28.01;48.77;100442.47;2103053;28;20071;-75
2022/07/31 04:49:52;;;;;;;2.70;1.98;;;;;;;28.23;48.64;100434.75;2102137;28;20122;-75
2022/07/31 04:51:19;;;;;;;4.82;1.73;;;;;;;28.47;48.02;100430.50;2108031;28;20292;-76
2022/07/31 04:52:41;;;;;;;3.78;1.92;;;;;;;28.63;47.66;100434.94;2111385;28;20097;-76
2022/07/31 04:54:07;;;;;;;4.85;1.90;;;;;;;28.74;47.58;100432.41;2104929;28;20072;-76
2022/07/31 04:55:29;;;;;;;6.03;1.70;;;;;;;28.84;47.58;100426.31;2105173;28;20067;-75
2022/07/31 04:56:51;;;;;;;5.55;1.60;;;;;;;29.04;47.67;100419.56;2102393;28;20044;-75
2022/07/31 04:58:13;;;;;;;3.97;1.65;;;;;;;29.30;47.51;100426.84;2096368;28;20170;-75
2022/07/31 04:59:35;;;;;;;2.72;1.70;;;;;;;29.58;46.94;100419.56;2091100;28;20052;-76
2022/07/31 05:00:58;;;;;;;6.80;1.88;;;;;;;29.70;46.32;100419.59;2085778;28;20136;-76
2022/07/31 05:02:20;;;;;;;6.47;1.85;;;;;;;29.81;45.83;100416.09;2091497;28;20252;-76
2022/07/31 05:03:43;;;;;;;5.57;1.70;;;;;;;29.98;45.43;100423.13;2098346;28;20056;-75
2022/07/31 05:05:06;;;;;;;10.07;2.20;;;;;;;30.20;45.52;100426.06;2102330;28;20078;-75
2022/07/31 05:06:35;;;;;;;9.27;2.30;;;;;;;30.49;44.83;100427.63;2095157;28;20573;-76
2022/07/31 05:07:58;;;;;;;7.97;2.08;;;;;;;30.70;44.67;100425.19;2090417;28;20068;-76
2022/07/31 05:09:32;;;;;;;5.50;1.95;;;;;;;30.99;44.74;100424.88;2085649;28;20041;-75
2022/07/31 05:12:36;;;;;;;6.57;2.22;;;;;;;31.58;43.42;100423.09;2099279;28;20055;-75
2022/07/31 05:14:00;;;;;;;7.72;1.88;;;;;;;31.84;43.25;100427.44;2105113;27;20773;-75
2022/07/31 05:15:22;;;;;;;5.22;1.70;;;;;;;32.11;42.64;100426.25;2095097;28;20108;-76
2022/07/31 05:16:44;;;;;;;5.47;1.50;;;;;;;32.29;42.01;100433.03;2098470;28;20035;-75
2022/07/31 05:18:06;;;;;;;;;;;;;;;32.40;42.22;100425.69;2102399;28;20056;-75
2022/07/31 05:19:47;;;;;;;6.93;2.45;;;;;;;32.66;41.64;100428.19;2103555;28;19935;-76
2022/07/31 05:21:15;;;;;;;7.15;2.50;;;;;;;32.77;41.09;100419.97;2102341;28;20055;-76
2022/07/31 05:23:17;;;;;;;8.07;1.88;;;;;;;33.02;40.96;100422.41;2096117;28;20048;-76
2022/07/31 05:24:52;;;;;;;4.20;1.90;;;;;;;33.34;40.74;100429.84;2107439;28;20586;-75
2022/07/31 05:26:14;;;;;;;3.97;1.90;;;;;;;33.60;40.46;100425.75;2110631;28;20546;-75
2022/07/31 05:27:37;;;;;;;5.68;1.63;;;;;;;33.84;40.05;100428.28;2095362;28;20094;-75
2022/07/31 05:29:01;;;;;;;5.40;1.70;;;;;;;34.09;39.71;100427.88;2099465;28;20139;-76
2022/07/31 05:30:24;;;;;;;2.05;1.73;;;;;;;34.31;38.94;100427.75;2098573;28;20646;-74
2022/07/31 05:31:46;;;;;;;4.43;1.70;;;;;;;34.52;38.13;100424.97;2092868;28;20073;-75
2022/07/31 05:33:08;;;;;;;7.43;1.98;;;;;;;34.75;37.61;100428.38;2107883;28;20052;-75
2022/07/31 05:34:30;;;;;;;4.90;1.52;;;;;;;34.94;36.91;100422.09;2102229;28;20047;-75
2022/07/31 05:35:52;;;;;;;4.80;2.00;;;;;;;35.07;36.42;100425.44;2099638;28;20048;-75
2022/07/31 05:37:15;;;;;;;8.48;1.80;;;;;;;35.17;35.70;100429.09;2093130;28;20059;-76
2022/07/31 05:38:39;;;;;;;6.00;1.88;;;;;;;35.28;35.02;100430.84;2099218;28;20052;-76
2022/07/31 05:40:30;;;;;;;4.32;1.63;;;;;;;35.40;35.25;100427.84;2103672;28;20046;-75
2022/07/31 05:42:28;;;;;;;3.95;1.83;;;;;;;35.50;35.30;100433.34;2091052;28;20135;-75
2022/07/31 05:44:19;;;;;;;4.97;1.73;;;;;;;35.49;35.66;100423.38;2091257;28;20109;-75
2022/07/31 05:45:41;;;;;;;3.20;1.45;;;;;;;35.55;35.66;100429.16;2098195;28;20508;-75
2022/07/31 05:47:07;;;;;;;5.20;1.67;;;;;;;35.62;35.49;100417.56;2099884;28;20089;-75
2022/07/31 05:48:29;;;;;;;3.40;1.70;;;;;;;35.75;35.45;100420.94;2105574;28;20075;-75
2022/07/31 05:49:52;;;;;;;3.95;1.73;;;;;;;35.87;35.11;100423.38;2100254;28;20040;-76
2022/07/31 05:51:14;;;;;;;5.40;1.80;;;;;;;36.02;34.94;100426.53;2101449;28;20130;-76
2022/07/31 05:52:38;;;;;;;8.20;2.00;;;;;;;36.06;34.73;100422.47;2101547;28;20140;-77
2022/07/31 05:54:19;;;;;;;2.72;1.67;;;;;;;36.14;34.79;100428.09;2100574;28;20099;-77
2022/07/31 05:56:01;;;;;;;5.47;1.98;;;;;;;36.20;34.85;100419.28;2103662;28;20516;-77
2022/07/31 05:57:37;;;;;;;9.13;1.88;;;;;;;36.44;34.53;100409.63;2103064;28;20052;-77
2022/07/31 05:58:59;;;;;;;5.70;1.58;;;;;;;36.63;34.49;100415.06;2092650;28;20139;-77
2022/07/31 06:00:22;;;;;;;3.75;1.70;;;;;;;36.80;33.89;100421.69;2086955;28;20048;-77
2022/07/31 06:01:44;;;;;;;4.30;1.50;;;;;;;36.94;33.30;100413.78;2094058;28;20085;-76
2022/07/31 06:03:06;;;;;;;3.55;1.67;;;;;;;37.03;32.86;100410.09;2099734;28;20056;-75
2022/07/31 06:04:53;;;;;;;4.60;1.55;;;;;;;37.16;32.64;100406.13;2102650;28;20085;-77
2022/07/31 06:06:18;;;;;;;5.38;1.60;;;;;;;37.23;32.25;100397.06;2092554;28;20098;-77
2022/07/31 06:07:40;;;;;;;3.60;1.70;;;;;;;37.32;31.88;100406.28;2090290;28;20072;-77
2022/07/31 06:09:03;;;;;;;5.93;1.83;;;;;;;37.40;31.76;100398.13;2097827;28;20044;-77
2022/07/31 06:10:28;;;;;;;6.10;1.70;;;;;;;37.56;31.28;100397.38;2102664;28;20055;-77
2022/07/31 06:11:50;;;;;;;4.32;1.45;;;;;;;37.53;30.96;100403.22;2109788;28;20058;-77
2022/07/31 06:13:13;;;;;;;7.40;2.33;;;;;;;37.55;30.70;100396.50;2106018;28;20071;-77
2022/07/31 06:14:36;;;;;;;4.70;1.55;;;;;;;37.64;30.37;100391.97;2104298;28;20523;-76
2022/07/31 06:16:14;;;;;;;3.58;1.70;;;;;;;37.76;29.93;100388.81;2103880;28;20036;-77
2022/07/31 06:17:37;;;;;;;6.65;1.58;;;;;;;37.90;29.70;100392.88;2096407;28;20117;-76
2022/07/31 06:19:00;;;;;;;4.47;1.52;;;;;;;37.82;29.54;100392.81;2104007;28;20595;-76
2022/07/31 06:20:22;;;;;;;2.72;1.60;;;;;;;37.69;28.88;100390.47;2099671;28;20112;-76
2022/07/31 06:21:46;;;;;;;5.05;1.67;;;;;;;37.70;29.24;100388.59;2100424;28;20040;-76
2022/07/31 06:23:07;;;;;;;5.55;1.85;;;;;;;37.72;29.13;100392.94;2103595;28;20521;-77
2022/07/31 06:24:32;;;;;;;3.97;1.73;;;;;;;37.51;29.51;100393.22;2094582;28;20040;-76
2022/07/31 06:25:56;;;;;;;5.10;2.05;;;;;;;37.45;29.46;100409.53;2100434;28;20052;-77
2022/07/31 06:27:18;;;;;;;4.88;1.65;;;;;;;37.40;29.29;100390.72;2088441;28;20075;-76
2022/07/31 06:28:41;;;;;;;2.60;1.67;;;;;;;37.48;29.30;100399.03;2099580;28;20052;-76
2022/07/31 06:30:04;;;;;;;5.20;1.73;;;;;;;37.55;28.78;100393.75;2094494;28;20531;-76
2022/07/31 06:31:27;;;;;;;4.95;1.80;;;;;;;37.56;28.46;100391.88;2092287;28;20052;-77
2022/07/31 06:32:52;;;;;;;2.78;1.75;;;;;;;37.53;28.71;100401.34;2097920;28;20097;-77
2022/07/31 06:34:14;;;;;;;4.65;1.90;;;;;;;37.51;29.14;100397.88;2096391;28;20040;-78
2022/07/31 06:35:38;;;;;;;4.00;2.03;;;;;;;37.59;29.17;100394.34;2102731;28;20052;-77
2022/07/31 06:37:21;;;;;;;3.17;1.80;;;;;;;37.71;29.30;100404.97;2094626;28;20056;-77
2022/07/31 06:38:44;;;;;;;6.72;1.90;;;;;;;37.80;29.18;100392.13;2094481;28;20117;-77